sensor_id;sensor_type;location;lat;lon;timestamp;P1;durP1;ratioP1;P2;durP2;ratioP2
5412;SDS011;2729;50.056;8.678;2023-04-16T00:02:19;8.00;;;5.20;;
5412;SDS011;2729;50.056;8.678;2023-04-16T00:04:46;9.80;;;4.70;;
5412;SDS011;2729;50.056;8.678;2023-04-16T00:07:12;8.03;;;4.73;;
5412;SDS011;2729;50.056;8.678;2023-04-16T00:09:38;5.03;;;3.20;;
5412;SDS011;2729;50.056;8.678;2023-04-16T00:12:04;7.87;;;4.30;;
5412;SDS011;2729;50.056;8.678;2023-04-16T00:14:31;4.47;;;3.37;;
5412;SDS011;2729;50.056;8.678;2023-04-16T00:16:57;6.13;;;4.23;;
5412;SDS011;2729;50.056;8.678;2023-04-16T00:19:23;8.30;;;5.07;;
5412;SDS011;2729;50.056;8.678;2023-04-16T00:21:49;7.43;;;5.27;;
5412;SDS011;2729;50.056;8.678;2023-04-16T00:24:15;6.83;;;3.97;;
5412;SDS011;2729;50.056;8.678;2023-04-16T00:26:40;5.50;;;4.10;;
5412;SDS011;2729;50.056;8.678;2023-04-16T00:29:08;9.57;;;5.13;;
5412;SDS011;2729;50.056;8.678;2023-04-16T00:31:35;8.73;;;5.27;;
5412;SDS011;2729;50.056;8.678;2023-04-16T00:34:02;13.27;;;6.47;;
5412;SDS011;2729;50.056;8.678;2023-04-16T00:36:28;9.83;;;4.87;;
5412;SDS011;2729;50.056;8.678;2023-04-16T00:38:55;5.63;;;3.73;;
5412;SDS011;2729;50.056;8.678;2023-04-16T00:41:22;9.10;;;4.73;;
5412;SDS011;2729;50.056;8.678;2023-04-16T00:43:48;6.57;;;4.33;;
5412;SDS011;2729;50.056;8.678;2023-04-16T00:46:14;5.77;;;3.90;;
5412;SDS011;2729;50.056;8.678;2023-04-16T00:48:41;8.83;;;4.43;;
5412;SDS011;2729;50.056;8.678;2023-04-16T00:51:09;6.90;;;3.97;;
5412;SDS011;2729;50.056;8.678;2023-04-16T00:53:36;7.27;;;4.67;;
5412;SDS011;2729;50.056;8.678;2023-04-16T00:56:03;5.33;;;3.60;;
5412;SDS011;2729;50.056;8.678;2023-04-16T00:58:31;17.10;;;6.53;;
5412;SDS011;2729;50.056;8.678;2023-04-16T01:00:58;36.23;;;12.37;;
5412;SDS011;2729;50.056;8.678;2023-04-16T01:03:27;19.10;;;7.37;;
5412;SDS011;2729;50.056;8.678;2023-04-16T01:06:01;8.20;;;4.33;;
5412;SDS011;2729;50.056;8.678;2023-04-16T01:08:27;14.07;;;7.40;;
5412;SDS011;2729;50.056;8.678;2023-04-16T01:10:53;17.70;;;7.13;;
5412;SDS011;2729;50.056;8.678;2023-04-16T01:13:19;46.03;;;14.90;;
5412;SDS011;2729;50.056;8.678;2023-04-16T01:15:45;22.73;;;9.33;;
5412;SDS011;2729;50.056;8.678;2023-04-16T01:18:14;13.73;;;7.30;;
5412;SDS011;2729;50.056;8.678;2023-04-16T01:20:41;11.63;;;6.67;;
5412;SDS011;2729;50.056;8.678;2023-04-16T01:23:07;20.80;;;10.10;;
5412;SDS011;2729;50.056;8.678;2023-04-16T01:25:33;12.97;;;7.17;;
5412;SDS011;2729;50.056;8.678;2023-04-16T01:27:59;13.63;;;6.80;;
5412;SDS011;2729;50.056;8.678;2023-04-16T01:30:25;9.53;;;5.40;;
5412;SDS011;2729;50.056;8.678;2023-04-16T01:33:04;9.67;;;5.33;;
5412;SDS011;2729;50.056;8.678;2023-04-16T01:35:31;7.27;;;4.60;;
5412;SDS011;2729;50.056;8.678;2023-04-16T01:37:56;3.83;;;3.27;;
5412;SDS011;2729;50.056;8.678;2023-04-16T01:40:23;4.03;;;3.23;;
5412;SDS011;2729;50.056;8.678;2023-04-16T01:42:49;5.40;;;3.83;;
5412;SDS011;2729;50.056;8.678;2023-04-16T01:45:16;4.70;;;4.10;;
5412;SDS011;2729;50.056;8.678;2023-04-16T01:47:42;8.27;;;4.70;;
5412;SDS011;2729;50.056;8.678;2023-04-16T01:50:08;6.83;;;4.40;;
5412;SDS011;2729;50.056;8.678;2023-04-16T01:52:34;4.20;;;3.77;;
5412;SDS011;2729;50.056;8.678;2023-04-16T01:55:01;12.60;;;5.97;;
5412;SDS011;2729;50.056;8.678;2023-04-16T01:57:28;6.70;;;4.60;;
5412;SDS011;2729;50.056;8.678;2023-04-16T01:59:54;5.07;;;4.03;;
5412;SDS011;2729;50.056;8.678;2023-04-16T02:02:20;5.57;;;3.90;;
5412;SDS011;2729;50.056;8.678;2023-04-16T02:04:53;3.50;;;3.20;;
5412;SDS011;2729;50.056;8.678;2023-04-16T02:07:21;8.73;;;4.80;;
5412;SDS011;2729;50.056;8.678;2023-04-16T02:09:48;4.20;;;3.53;;
5412;SDS011;2729;50.056;8.678;2023-04-16T02:12:15;5.00;;;3.60;;
5412;SDS011;2729;50.056;8.678;2023-04-16T02:14:41;3.40;;;3.10;;
5412;SDS011;2729;50.056;8.678;2023-04-16T02:17:08;6.57;;;4.43;;
5412;SDS011;2729;50.056;8.678;2023-04-16T02:19:36;19.83;;;3.73;;
5412;SDS011;2729;50.056;8.678;2023-04-16T02:22:02;4.27;;;3.73;;
5412;SDS011;2729;50.056;8.678;2023-04-16T02:24:28;6.07;;;4.47;;
5412;SDS011;2729;50.056;8.678;2023-04-16T02:26:55;6.27;;;4.30;;
5412;SDS011;2729;50.056;8.678;2023-04-16T02:29:21;6.90;;;4.07;;
5412;SDS011;2729;50.056;8.678;2023-04-16T02:31:54;10.60;;;4.27;;
5412;SDS011;2729;50.056;8.678;2023-04-16T02:34:20;4.57;;;3.40;;
5412;SDS011;2729;50.056;8.678;2023-04-16T02:36:47;12.47;;;7.07;;
5412;SDS011;2729;50.056;8.678;2023-04-16T02:39:13;13.03;;;6.67;;
5412;SDS011;2729;50.056;8.678;2023-04-16T02:41:38;8.90;;;5.30;;
5412;SDS011;2729;50.056;8.678;2023-04-16T02:44:04;7.63;;;5.17;;
5412;SDS011;2729;50.056;8.678;2023-04-16T02:46:30;17.23;;;8.53;;
5412;SDS011;2729;50.056;8.678;2023-04-16T02:48:56;20.13;;;8.17;;
5412;SDS011;2729;50.056;8.678;2023-04-16T02:51:22;11.17;;;6.30;;
5412;SDS011;2729;50.056;8.678;2023-04-16T02:53:48;7.40;;;4.20;;
5412;SDS011;2729;50.056;8.678;2023-04-16T02:56:14;4.47;;;3.20;;
5412;SDS011;2729;50.056;8.678;2023-04-16T02:58:40;7.00;;;4.10;;
5412;SDS011;2729;50.056;8.678;2023-04-16T03:01:06;5.03;;;3.73;;
5412;SDS011;2729;50.056;8.678;2023-04-16T03:03:32;7.47;;;3.10;;
5412;SDS011;2729;50.056;8.678;2023-04-16T03:05:58;11.37;;;4.20;;
5412;SDS011;2729;50.056;8.678;2023-04-16T03:08:24;15.10;;;5.97;;
5412;SDS011;2729;50.056;8.678;2023-04-16T03:10:50;23.13;;;11.17;;
5412;SDS011;2729;50.056;8.678;2023-04-16T03:13:16;18.77;;;9.30;;
5412;SDS011;2729;50.056;8.678;2023-04-16T03:15:47;14.73;;;6.50;;
5412;SDS011;2729;50.056;8.678;2023-04-16T03:18:14;12.00;;;6.17;;
5412;SDS011;2729;50.056;8.678;2023-04-16T03:20:40;21.30;;;10.07;;
5412;SDS011;2729;50.056;8.678;2023-04-16T03:23:06;14.53;;;8.07;;
5412;SDS011;2729;50.056;8.678;2023-04-16T03:25:32;23.83;;;9.53;;
5412;SDS011;2729;50.056;8.678;2023-04-16T03:27:58;8.53;;;5.80;;
5412;SDS011;2729;50.056;8.678;2023-04-16T03:30:24;7.50;;;5.60;;
5412;SDS011;2729;50.056;8.678;2023-04-16T03:32:50;8.07;;;4.60;;
5412;SDS011;2729;50.056;8.678;2023-04-16T03:35:16;7.87;;;4.60;;
5412;SDS011;2729;50.056;8.678;2023-04-16T03:37:43;8.57;;;5.17;;
5412;SDS011;2729;50.056;8.678;2023-04-16T03:40:09;6.77;;;4.87;;
5412;SDS011;2729;50.056;8.678;2023-04-16T03:42:36;8.37;;;4.63;;
5412;SDS011;2729;50.056;8.678;2023-04-16T03:45:02;6.57;;;4.60;;
5412;SDS011;2729;50.056;8.678;2023-04-16T03:47:29;6.70;;;4.47;;
5412;SDS011;2729;50.056;8.678;2023-04-16T03:49:59;11.10;;;5.90;;
5412;SDS011;2729;50.056;8.678;2023-04-16T03:52:26;9.03;;;5.40;;
5412;SDS011;2729;50.056;8.678;2023-04-16T03:54:52;5.73;;;4.40;;
5412;SDS011;2729;50.056;8.678;2023-04-16T03:57:24;12.53;;;6.80;;
5412;SDS011;2729;50.056;8.678;2023-04-16T03:59:51;8.87;;;5.30;;
5412;SDS011;2729;50.056;8.678;2023-04-16T04:02:17;8.20;;;4.40;;
5412;SDS011;2729;50.056;8.678;2023-04-16T04:04:43;5.50;;;4.10;;
5412;SDS011;2729;50.056;8.678;2023-04-16T04:07:09;4.07;;;3.60;;
5412;SDS011;2729;50.056;8.678;2023-04-16T04:09:35;10.20;;;4.30;;
5412;SDS011;2729;50.056;8.678;2023-04-16T04:12:02;6.80;;;4.47;;
5412;SDS011;2729;50.056;8.678;2023-04-16T04:14:29;7.10;;;4.13;;
5412;SDS011;2729;50.056;8.678;2023-04-16T04:16:54;7.50;;;4.50;;
5412;SDS011;2729;50.056;8.678;2023-04-16T04:19:20;6.63;;;4.40;;
5412;SDS011;2729;50.056;8.678;2023-04-16T04:21:47;7.20;;;4.83;;
5412;SDS011;2729;50.056;8.678;2023-04-16T04:24:15;7.80;;;4.90;;
5412;SDS011;2729;50.056;8.678;2023-04-16T04:26:41;10.83;;;5.23;;
5412;SDS011;2729;50.056;8.678;2023-04-16T04:29:07;11.23;;;5.43;;
5412;SDS011;2729;50.056;8.678;2023-04-16T04:31:34;6.00;;;4.07;;
5412;SDS011;2729;50.056;8.678;2023-04-16T04:34:00;7.37;;;4.80;;
5412;SDS011;2729;50.056;8.678;2023-04-16T04:36:27;8.10;;;5.10;;
5412;SDS011;2729;50.056;8.678;2023-04-16T04:38:53;9.87;;;5.00;;
5412;SDS011;2729;50.056;8.678;2023-04-16T04:41:20;8.47;;;4.40;;
5412;SDS011;2729;50.056;8.678;2023-04-16T04:43:46;10.60;;;5.00;;
5412;SDS011;2729;50.056;8.678;2023-04-16T04:46:12;11.63;;;6.90;;
5412;SDS011;2729;50.056;8.678;2023-04-16T04:48:39;11.40;;;6.33;;
5412;SDS011;2729;50.056;8.678;2023-04-16T04:51:05;13.03;;;6.97;;
5412;SDS011;2729;50.056;8.678;2023-04-16T04:53:31;8.77;;;5.53;;
5412;SDS011;2729;50.056;8.678;2023-04-16T04:55:57;14.20;;;6.87;;
5412;SDS011;2729;50.056;8.678;2023-04-16T04:58:23;15.93;;;8.57;;
5412;SDS011;2729;50.056;8.678;2023-04-16T05:00:50;14.80;;;8.30;;
5412;SDS011;2729;50.056;8.678;2023-04-16T05:03:18;8.70;;;5.50;;
5412;SDS011;2729;50.056;8.678;2023-04-16T05:05:46;9.17;;;5.80;;
5412;SDS011;2729;50.056;8.678;2023-04-16T05:08:12;8.57;;;5.03;;
5412;SDS011;2729;50.056;8.678;2023-04-16T05:10:38;9.90;;;4.50;;
5412;SDS011;2729;50.056;8.678;2023-04-16T05:13:04;8.80;;;4.83;;
5412;SDS011;2729;50.056;8.678;2023-04-16T05:15:30;5.53;;;3.90;;
5412;SDS011;2729;50.056;8.678;2023-04-16T05:17:56;6.23;;;4.13;;
5412;SDS011;2729;50.056;8.678;2023-04-16T05:20:22;8.17;;;4.90;;
5412;SDS011;2729;50.056;8.678;2023-04-16T05:22:50;7.17;;;4.47;;
5412;SDS011;2729;50.056;8.678;2023-04-16T05:25:17;5.57;;;4.37;;
5412;SDS011;2729;50.056;8.678;2023-04-16T05:27:43;7.23;;;4.73;;
5412;SDS011;2729;50.056;8.678;2023-04-16T05:30:09;7.83;;;4.47;;
5412;SDS011;2729;50.056;8.678;2023-04-16T05:32:35;4.40;;;3.60;;
5412;SDS011;2729;50.056;8.678;2023-04-16T05:35:01;7.23;;;4.23;;
5412;SDS011;2729;50.056;8.678;2023-04-16T05:37:27;8.30;;;4.80;;
5412;SDS011;2729;50.056;8.678;2023-04-16T05:39:53;6.73;;;4.47;;
5412;SDS011;2729;50.056;8.678;2023-04-16T05:42:19;6.30;;;4.80;;
5412;SDS011;2729;50.056;8.678;2023-04-16T05:44:45;5.40;;;4.07;;
5412;SDS011;2729;50.056;8.678;2023-04-16T05:47:11;6.20;;;3.97;;
5412;SDS011;2729;50.056;8.678;2023-04-16T05:49:36;7.87;;;5.07;;
5412;SDS011;2729;50.056;8.678;2023-04-16T05:52:03;8.43;;;4.87;;
5412;SDS011;2729;50.056;8.678;2023-04-16T05:54:29;5.10;;;4.07;;
5412;SDS011;2729;50.056;8.678;2023-04-16T05:56:55;11.27;;;5.03;;
5412;SDS011;2729;50.056;8.678;2023-04-16T05:59:22;5.23;;;4.30;;
5412;SDS011;2729;50.056;8.678;2023-04-16T06:01:48;6.10;;;4.33;;
5412;SDS011;2729;50.056;8.678;2023-04-16T06:04:13;7.97;;;4.50;;
5412;SDS011;2729;50.056;8.678;2023-04-16T06:06:40;5.40;;;3.90;;
5412;SDS011;2729;50.056;8.678;2023-04-16T06:09:06;7.70;;;3.77;;
5412;SDS011;2729;50.056;8.678;2023-04-16T06:11:32;6.40;;;4.37;;
5412;SDS011;2729;50.056;8.678;2023-04-16T06:13:58;6.07;;;3.80;;
5412;SDS011;2729;50.056;8.678;2023-04-16T06:16:23;5.63;;;3.90;;
5412;SDS011;2729;50.056;8.678;2023-04-16T06:18:49;4.00;;;3.57;;
5412;SDS011;2729;50.056;8.678;2023-04-16T06:21:15;6.63;;;3.80;;
5412;SDS011;2729;50.056;8.678;2023-04-16T06:23:41;6.03;;;4.53;;
5412;SDS011;2729;50.056;8.678;2023-04-16T06:26:07;5.27;;;3.83;;
5412;SDS011;2729;50.056;8.678;2023-04-16T06:28:33;4.20;;;3.80;;
5412;SDS011;2729;50.056;8.678;2023-04-16T06:30:59;9.80;;;5.10;;
5412;SDS011;2729;50.056;8.678;2023-04-16T06:33:25;5.03;;;4.03;;
5412;SDS011;2729;50.056;8.678;2023-04-16T06:35:51;7.33;;;4.17;;
5412;SDS011;2729;50.056;8.678;2023-04-16T06:38:17;7.03;;;4.20;;
5412;SDS011;2729;50.056;8.678;2023-04-16T06:40:43;5.63;;;4.20;;
5412;SDS011;2729;50.056;8.678;2023-04-16T06:43:09;5.00;;;4.00;;
5412;SDS011;2729;50.056;8.678;2023-04-16T06:45:35;6.50;;;4.67;;
5412;SDS011;2729;50.056;8.678;2023-04-16T06:48:01;14.67;;;8.30;;
5412;SDS011;2729;50.056;8.678;2023-04-16T06:50:29;13.93;;;9.00;;
5412;SDS011;2729;50.056;8.678;2023-04-16T06:52:55;12.93;;;7.80;;
5412;SDS011;2729;50.056;8.678;2023-04-16T06:55:21;23.27;;;12.70;;
5412;SDS011;2729;50.056;8.678;2023-04-16T06:57:47;19.30;;;8.60;;
5412;SDS011;2729;50.056;8.678;2023-04-16T07:00:13;9.67;;;7.30;;
5412;SDS011;2729;50.056;8.678;2023-04-16T07:02:39;9.37;;;6.73;;
5412;SDS011;2729;50.056;8.678;2023-04-16T07:05:05;7.60;;;5.33;;
5412;SDS011;2729;50.056;8.678;2023-04-16T07:07:31;9.30;;;5.67;;
5412;SDS011;2729;50.056;8.678;2023-04-16T07:09:57;12.60;;;6.40;;
5412;SDS011;2729;50.056;8.678;2023-04-16T07:12:23;12.90;;;6.57;;
5412;SDS011;2729;50.056;8.678;2023-04-16T07:14:49;8.07;;;5.70;;
5412;SDS011;2729;50.056;8.678;2023-04-16T07:17:15;12.47;;;5.77;;
5412;SDS011;2729;50.056;8.678;2023-04-16T07:19:41;12.87;;;5.53;;
5412;SDS011;2729;50.056;8.678;2023-04-16T07:22:07;10.80;;;6.50;;
5412;SDS011;2729;50.056;8.678;2023-04-16T07:24:33;15.23;;;7.17;;
5412;SDS011;2729;50.056;8.678;2023-04-16T07:27:00;12.67;;;6.83;;
5412;SDS011;2729;50.056;8.678;2023-04-16T07:29:26;13.67;;;7.30;;
5412;SDS011;2729;50.056;8.678;2023-04-16T07:31:52;10.07;;;6.20;;
5412;SDS011;2729;50.056;8.678;2023-04-16T07:34:18;9.70;;;6.30;;
5412;SDS011;2729;50.056;8.678;2023-04-16T07:36:44;8.00;;;5.00;;
5412;SDS011;2729;50.056;8.678;2023-04-16T07:39:10;12.47;;;6.23;;
5412;SDS011;2729;50.056;8.678;2023-04-16T07:41:36;8.97;;;5.20;;
5412;SDS011;2729;50.056;8.678;2023-04-16T07:44:02;12.90;;;6.03;;
5412;SDS011;2729;50.056;8.678;2023-04-16T07:46:28;15.27;;;6.30;;
5412;SDS011;2729;50.056;8.678;2023-04-16T07:48:54;9.20;;;6.07;;
5412;SDS011;2729;50.056;8.678;2023-04-16T07:51:20;10.13;;;5.70;;
5412;SDS011;2729;50.056;8.678;2023-04-16T07:53:46;10.30;;;5.13;;
5412;SDS011;2729;50.056;8.678;2023-04-16T07:56:12;12.17;;;5.03;;
5412;SDS011;2729;50.056;8.678;2023-04-16T07:58:38;9.97;;;4.50;;
5412;SDS011;2729;50.056;8.678;2023-04-16T08:01:04;8.67;;;4.40;;
5412;SDS011;2729;50.056;8.678;2023-04-16T08:03:30;6.00;;;4.70;;
5412;SDS011;2729;50.056;8.678;2023-04-16T08:05:56;9.07;;;5.13;;
5412;SDS011;2729;50.056;8.678;2023-04-16T08:08:23;7.50;;;5.30;;
5412;SDS011;2729;50.056;8.678;2023-04-16T08:10:49;6.80;;;4.30;;
5412;SDS011;2729;50.056;8.678;2023-04-16T08:13:21;6.80;;;4.33;;
5412;SDS011;2729;50.056;8.678;2023-04-16T08:15:48;6.30;;;4.43;;
5412;SDS011;2729;50.056;8.678;2023-04-16T08:18:14;7.77;;;4.73;;
5412;SDS011;2729;50.056;8.678;2023-04-16T08:20:40;5.50;;;4.30;;
5412;SDS011;2729;50.056;8.678;2023-04-16T08:23:07;8.10;;;4.70;;
5412;SDS011;2729;50.056;8.678;2023-04-16T08:25:34;9.53;;;5.00;;
5412;SDS011;2729;50.056;8.678;2023-04-16T08:28:01;8.10;;;5.20;;
5412;SDS011;2729;50.056;8.678;2023-04-16T08:30:27;7.00;;;4.50;;
5412;SDS011;2729;50.056;8.678;2023-04-16T08:32:53;7.60;;;5.10;;
5412;SDS011;2729;50.056;8.678;2023-04-16T08:35:19;11.20;;;5.13;;
5412;SDS011;2729;50.056;8.678;2023-04-16T08:37:45;7.30;;;5.30;;
5412;SDS011;2729;50.056;8.678;2023-04-16T08:40:11;8.20;;;5.23;;
5412;SDS011;2729;50.056;8.678;2023-04-16T08:45:20;9.07;;;5.30;;
5412;SDS011;2729;50.056;8.678;2023-04-16T08:47:47;9.63;;;5.57;;
5412;SDS011;2729;50.056;8.678;2023-04-16T08:50:16;8.07;;;5.50;;
5412;SDS011;2729;50.056;8.678;2023-04-16T08:53:01;10.10;;;5.13;;
5412;SDS011;2729;50.056;8.678;2023-04-16T08:55:38;8.13;;;5.80;;
5412;SDS011;2729;50.056;8.678;2023-04-16T08:58:19;8.90;;;5.90;;
5412;SDS011;2729;50.056;8.678;2023-04-16T09:00:50;8.90;;;6.03;;
5412;SDS011;2729;50.056;8.678;2023-04-16T09:03:16;11.27;;;5.53;;
5412;SDS011;2729;50.056;8.678;2023-04-16T09:05:45;8.40;;;5.33;;
5412;SDS011;2729;50.056;8.678;2023-04-16T09:08:13;10.90;;;5.97;;
5412;SDS011;2729;50.056;8.678;2023-04-16T09:10:40;9.70;;;6.00;;
5412;SDS011;2729;50.056;8.678;2023-04-16T09:13:08;10.33;;;6.13;;
5412;SDS011;2729;50.056;8.678;2023-04-16T09:15:36;9.40;;;6.10;;
5412;SDS011;2729;50.056;8.678;2023-04-16T09:18:03;7.30;;;5.27;;
5412;SDS011;2729;50.056;8.678;2023-04-16T09:20:28;8.10;;;5.60;;
5412;SDS011;2729;50.056;8.678;2023-04-16T09:22:54;10.13;;;5.93;;
5412;SDS011;2729;50.056;8.678;2023-04-16T09:25:21;7.20;;;5.67;;
5412;SDS011;2729;50.056;8.678;2023-04-16T09:27:50;10.33;;;5.50;;
5412;SDS011;2729;50.056;8.678;2023-04-16T09:30:20;8.93;;;5.37;;
5412;SDS011;2729;50.056;8.678;2023-04-16T09:32:48;9.07;;;5.87;;
5412;SDS011;2729;50.056;8.678;2023-04-16T09:35:16;8.90;;;5.70;;
5412;SDS011;2729;50.056;8.678;2023-04-16T09:37:43;9.90;;;6.10;;
5412;SDS011;2729;50.056;8.678;2023-04-16T09:40:09;13.60;;;5.00;;
5412;SDS011;2729;50.056;8.678;2023-04-16T09:42:35;8.50;;;5.47;;
5412;SDS011;2729;50.056;8.678;2023-04-16T09:45:01;10.90;;;6.77;;
5412;SDS011;2729;50.056;8.678;2023-04-16T09:47:38;11.30;;;6.13;;
5412;SDS011;2729;50.056;8.678;2023-04-16T09:50:06;8.90;;;5.97;;
5412;SDS011;2729;50.056;8.678;2023-04-16T09:52:36;11.00;;;5.20;;
5412;SDS011;2729;50.056;8.678;2023-04-16T09:55:03;8.17;;;5.90;;
5412;SDS011;2729;50.056;8.678;2023-04-16T09:57:29;8.20;;;5.17;;
5412;SDS011;2729;50.056;8.678;2023-04-16T10:00:00;9.60;;;5.47;;
5412;SDS011;2729;50.056;8.678;2023-04-16T10:02:30;8.47;;;5.47;;
5412;SDS011;2729;50.056;8.678;2023-04-16T10:04:57;6.00;;;4.80;;
5412;SDS011;2729;50.056;8.678;2023-04-16T10:07:32;7.20;;;5.43;;
5412;SDS011;2729;50.056;8.678;2023-04-16T10:10:00;10.03;;;6.43;;
5412;SDS011;2729;50.056;8.678;2023-04-16T10:12:27;7.50;;;5.47;;
5412;SDS011;2729;50.056;8.678;2023-04-16T10:14:54;6.73;;;5.27;;
5412;SDS011;2729;50.056;8.678;2023-04-16T10:17:20;9.83;;;6.07;;
5412;SDS011;2729;50.056;8.678;2023-04-16T10:19:46;7.40;;;5.00;;
5412;SDS011;2729;50.056;8.678;2023-04-16T10:22:12;6.50;;;4.47;;
5412;SDS011;2729;50.056;8.678;2023-04-16T10:24:38;7.57;;;4.90;;
5412;SDS011;2729;50.056;8.678;2023-04-16T10:27:05;7.20;;;5.27;;
5412;SDS011;2729;50.056;8.678;2023-04-16T10:29:31;7.07;;;4.80;;
5412;SDS011;2729;50.056;8.678;2023-04-16T10:31:58;5.13;;;4.60;;
5412;SDS011;2729;50.056;8.678;2023-04-16T10:34:25;7.10;;;4.70;;
5412;SDS011;2729;50.056;8.678;2023-04-16T10:36:53;11.90;;;5.30;;
5412;SDS011;2729;50.056;8.678;2023-04-16T10:39:21;8.40;;;5.50;;
5412;SDS011;2729;50.056;8.678;2023-04-16T10:41:49;6.63;;;4.63;;
5412;SDS011;2729;50.056;8.678;2023-04-16T10:44:16;5.13;;;4.37;;
5412;SDS011;2729;50.056;8.678;2023-04-16T10:46:45;9.70;;;5.37;;
5412;SDS011;2729;50.056;8.678;2023-04-16T10:49:18;6.30;;;4.53;;
5412;SDS011;2729;50.056;8.678;2023-04-16T10:52:01;7.03;;;5.37;;
5412;SDS011;2729;50.056;8.678;2023-04-16T10:54:34;7.67;;;5.30;;
5412;SDS011;2729;50.056;8.678;2023-04-16T10:57:06;6.17;;;4.67;;
5412;SDS011;2729;50.056;8.678;2023-04-16T10:59:34;6.63;;;5.23;;
5412;SDS011;2729;50.056;8.678;2023-04-16T11:02:07;6.53;;;5.00;;
5412;SDS011;2729;50.056;8.678;2023-04-16T11:04:41;9.70;;;4.60;;
5412;SDS011;2729;50.056;8.678;2023-04-16T11:07:13;6.77;;;5.17;;
5412;SDS011;2729;50.056;8.678;2023-04-16T11:15:10;9.13;;;5.37;;
5412;SDS011;2729;50.056;8.678;2023-04-16T11:17:39;6.67;;;5.10;;
5412;SDS011;2729;50.056;8.678;2023-04-16T11:20:16;9.17;;;5.60;;
5412;SDS011;2729;50.056;8.678;2023-04-16T11:22:43;8.63;;;5.10;;
5412;SDS011;2729;50.056;8.678;2023-04-16T11:25:11;7.20;;;4.90;;
5412;SDS011;2729;50.056;8.678;2023-04-16T11:27:38;9.63;;;5.80;;
5412;SDS011;2729;50.056;8.678;2023-04-16T11:30:07;11.07;;;5.57;;
5412;SDS011;2729;50.056;8.678;2023-04-16T11:32:36;9.40;;;5.80;;
5412;SDS011;2729;50.056;8.678;2023-04-16T11:35:04;9.63;;;5.33;;
5412;SDS011;2729;50.056;8.678;2023-04-16T11:37:38;8.57;;;5.30;;
5412;SDS011;2729;50.056;8.678;2023-04-16T11:40:04;8.13;;;6.10;;
5412;SDS011;2729;50.056;8.678;2023-04-16T11:42:32;8.20;;;5.93;;
5412;SDS011;2729;50.056;8.678;2023-04-16T11:45:01;8.60;;;5.90;;
5412;SDS011;2729;50.056;8.678;2023-04-16T11:47:29;15.30;;;6.20;;
5412;SDS011;2729;50.056;8.678;2023-04-16T11:49:56;6.20;;;5.10;;
5412;SDS011;2729;50.056;8.678;2023-04-16T11:52:30;8.93;;;5.60;;
5412;SDS011;2729;50.056;8.678;2023-04-16T11:54:57;9.30;;;6.27;;
5412;SDS011;2729;50.056;8.678;2023-04-16T11:57:25;9.37;;;6.83;;
5412;SDS011;2729;50.056;8.678;2023-04-16T11:59:55;14.50;;;7.27;;
5412;SDS011;2729;50.056;8.678;2023-04-16T12:02:38;11.03;;;6.63;;
5412;SDS011;2729;50.056;8.678;2023-04-16T12:05:33;9.97;;;5.23;;
5412;SDS011;2729;50.056;8.678;2023-04-16T12:08:07;10.07;;;6.30;;
5412;SDS011;2729;50.056;8.678;2023-04-16T12:10:35;14.10;;;6.90;;
5412;SDS011;2729;50.056;8.678;2023-04-16T12:13:12;10.90;;;6.40;;
5412;SDS011;2729;50.056;8.678;2023-04-16T12:15:57;13.60;;;7.10;;
5412;SDS011;2729;50.056;8.678;2023-04-16T12:18:24;9.77;;;6.03;;
5412;SDS011;2729;50.056;8.678;2023-04-16T12:20:53;15.07;;;6.97;;
5412;SDS011;2729;50.056;8.678;2023-04-16T12:23:26;13.33;;;7.50;;
5412;SDS011;2729;50.056;8.678;2023-04-16T12:25:52;11.00;;;6.83;;
5412;SDS011;2729;50.056;8.678;2023-04-16T12:28:26;8.30;;;6.13;;
5412;SDS011;2729;50.056;8.678;2023-04-16T12:30:55;12.07;;;6.77;;
5412;SDS011;2729;50.056;8.678;2023-04-16T12:33:21;9.40;;;5.90;;
5412;SDS011;2729;50.056;8.678;2023-04-16T12:35:47;10.47;;;7.03;;
5412;SDS011;2729;50.056;8.678;2023-04-16T12:38:13;12.53;;;6.57;;
5412;SDS011;2729;50.056;8.678;2023-04-16T12:40:40;9.07;;;6.13;;
5412;SDS011;2729;50.056;8.678;2023-04-16T12:43:06;10.03;;;6.63;;
5412;SDS011;2729;50.056;8.678;2023-04-16T12:45:33;19.17;;;7.50;;
5412;SDS011;2729;50.056;8.678;2023-04-16T12:47:59;12.03;;;7.00;;
5412;SDS011;2729;50.056;8.678;2023-04-16T12:50:25;11.00;;;7.60;;
5412;SDS011;2729;50.056;8.678;2023-04-16T12:52:54;12.90;;;7.40;;
5412;SDS011;2729;50.056;8.678;2023-04-16T12:55:20;10.80;;;6.30;;
5412;SDS011;2729;50.056;8.678;2023-04-16T12:57:46;10.07;;;6.80;;
5412;SDS011;2729;50.056;8.678;2023-04-16T13:00:13;14.23;;;7.03;;
5412;SDS011;2729;50.056;8.678;2023-04-16T13:02:41;16.20;;;6.97;;
5412;SDS011;2729;50.056;8.678;2023-04-16T13:05:07;10.93;;;7.60;;
5412;SDS011;2729;50.056;8.678;2023-04-16T13:07:33;14.70;;;8.10;;
5412;SDS011;2729;50.056;8.678;2023-04-16T13:09:59;13.10;;;8.20;;
5412;SDS011;2729;50.056;8.678;2023-04-16T13:12:26;13.90;;;7.60;;
5412;SDS011;2729;50.056;8.678;2023-04-16T13:14:53;15.33;;;9.10;;
5412;SDS011;2729;50.056;8.678;2023-04-16T13:17:20;19.83;;;9.40;;
5412;SDS011;2729;50.056;8.678;2023-04-16T13:19:46;14.47;;;7.80;;
5412;SDS011;2729;50.056;8.678;2023-04-16T13:22:15;14.77;;;9.00;;
5412;SDS011;2729;50.056;8.678;2023-04-16T13:24:41;15.57;;;8.93;;
5412;SDS011;2729;50.056;8.678;2023-04-16T13:27:06;16.20;;;9.10;;
5412;SDS011;2729;50.056;8.678;2023-04-16T13:29:33;17.60;;;8.73;;
5412;SDS011;2729;50.056;8.678;2023-04-16T13:32:01;13.20;;;8.00;;
5412;SDS011;2729;50.056;8.678;2023-04-16T13:34:31;13.07;;;8.70;;
5412;SDS011;2729;50.056;8.678;2023-04-16T13:36:57;14.00;;;7.83;;
5412;SDS011;2729;50.056;8.678;2023-04-16T13:39:23;14.70;;;8.20;;
5412;SDS011;2729;50.056;8.678;2023-04-16T13:41:49;13.57;;;8.20;;
5412;SDS011;2729;50.056;8.678;2023-04-16T13:44:16;11.00;;;7.87;;
5412;SDS011;2729;50.056;8.678;2023-04-16T13:46:42;13.10;;;7.70;;
5412;SDS011;2729;50.056;8.678;2023-04-16T13:49:12;15.03;;;8.87;;
5412;SDS011;2729;50.056;8.678;2023-04-16T13:51:38;13.50;;;8.73;;
5412;SDS011;2729;50.056;8.678;2023-04-16T13:54:04;15.53;;;8.33;;
5412;SDS011;2729;50.056;8.678;2023-04-16T13:56:30;13.27;;;7.40;;
5412;SDS011;2729;50.056;8.678;2023-04-16T13:58:56;12.70;;;8.40;;
5412;SDS011;2729;50.056;8.678;2023-04-16T14:01:22;13.40;;;7.87;;
5412;SDS011;2729;50.056;8.678;2023-04-16T14:03:48;16.33;;;9.30;;
5412;SDS011;2729;50.056;8.678;2023-04-16T14:06:14;14.67;;;8.33;;
5412;SDS011;2729;50.056;8.678;2023-04-16T14:08:42;14.40;;;8.70;;
5412;SDS011;2729;50.056;8.678;2023-04-16T14:11:12;16.20;;;8.10;;
5412;SDS011;2729;50.056;8.678;2023-04-16T14:13:38;11.97;;;8.00;;
5412;SDS011;2729;50.056;8.678;2023-04-16T14:16:03;14.10;;;9.00;;
5412;SDS011;2729;50.056;8.678;2023-04-16T14:18:30;16.30;;;9.00;;
5412;SDS011;2729;50.056;8.678;2023-04-16T14:20:56;12.60;;;8.70;;
5412;SDS011;2729;50.056;8.678;2023-04-16T14:23:23;14.57;;;9.03;;
5412;SDS011;2729;50.056;8.678;2023-04-16T14:25:49;14.70;;;7.97;;
5412;SDS011;2729;50.056;8.678;2023-04-16T14:28:15;9.73;;;6.77;;
5412;SDS011;2729;50.056;8.678;2023-04-16T14:30:41;18.20;;;9.00;;
5412;SDS011;2729;50.056;8.678;2023-04-16T14:33:07;13.30;;;8.00;;
5412;SDS011;2729;50.056;8.678;2023-04-16T14:35:33;12.17;;;7.60;;
5412;SDS011;2729;50.056;8.678;2023-04-16T14:38:00;13.30;;;8.00;;
5412;SDS011;2729;50.056;8.678;2023-04-16T14:40:26;12.17;;;7.90;;
5412;SDS011;2729;50.056;8.678;2023-04-16T14:42:53;14.53;;;8.10;;
5412;SDS011;2729;50.056;8.678;2023-04-16T14:45:18;13.00;;;8.10;;
5412;SDS011;2729;50.056;8.678;2023-04-16T14:47:44;12.73;;;8.17;;
5412;SDS011;2729;50.056;8.678;2023-04-16T14:50:12;11.90;;;7.70;;
5412;SDS011;2729;50.056;8.678;2023-04-16T14:52:39;11.93;;;7.30;;
5412;SDS011;2729;50.056;8.678;2023-04-16T14:55:07;12.27;;;7.73;;
5412;SDS011;2729;50.056;8.678;2023-04-16T14:57:33;11.97;;;8.10;;
5412;SDS011;2729;50.056;8.678;2023-04-16T14:59:59;13.90;;;7.63;;
5412;SDS011;2729;50.056;8.678;2023-04-16T15:02:25;9.77;;;6.63;;
5412;SDS011;2729;50.056;8.678;2023-04-16T15:04:52;10.73;;;7.17;;
5412;SDS011;2729;50.056;8.678;2023-04-16T15:07:19;12.37;;;7.00;;
5412;SDS011;2729;50.056;8.678;2023-04-16T15:09:45;8.67;;;6.37;;
5412;SDS011;2729;50.056;8.678;2023-04-16T15:12:11;8.53;;;6.60;;
5412;SDS011;2729;50.056;8.678;2023-04-16T15:14:37;8.77;;;6.63;;
5412;SDS011;2729;50.056;8.678;2023-04-16T15:17:03;9.47;;;6.50;;
5412;SDS011;2729;50.056;8.678;2023-04-16T15:19:29;14.13;;;6.30;;